This is the latest recevied weather packets stored in our database for station/object KD8FRE. If no packets are shown the sender has not sent any weather packets the latest 10 day(s).
| Time | Temp. | Humidity | Pressure | Rain* | Wind** | Luminosity | Snow |
|---|---|---|---|---|---|---|---|
| 1777308332 | 18.33° C | 50% | 1017.1 hPa | 0 mm | - | 603 W/m² | - |
| 1777307725 | 18.89° C | 52% | 1017.4 hPa | 0 mm | - | 603 W/m² | - |
| 1777306514 | 18.33° C | 53% | 1017.9 hPa | 0 mm | - | 297 W/m² | - |
| 1777306209 | 18.33° C | 53% | 1017.9 hPa | 0 mm | - | 546 W/m² | - |
| 1777304996 | 17.22° C | 54% | 1018.4 hPa | 0 mm | - | 547 W/m² | - |
| 1777304692 | 16.67° C | 54% | 1018.2 hPa | 0 mm | - | 461 W/m² | - |
| 1777304389 | 17.22° C | 54% | 1018.2 hPa | 0 mm | - | 439 W/m² | - |
| 1777304086 | 16.67° C | 54% | 1018 hPa | 0 mm | - | 368 W/m² | - |
| 1777303783 | 16.67° C | 51% | 1018.2 hPa | 0 mm | - | 311 W/m² | - |
| 1777303178 | 16.67° C | 51% | 1017.9 hPa | 0 mm | - | 304 W/m² | - |
| 1777302877 | 16.67° C | 50% | 1017.8 hPa | 0 mm | - | 403 W/m² | - |
| 1777302573 | 16.67° C | 50% | 1018 hPa | 0 mm | - | 404 W/m² | - |
| 1777302271 | 16.67° C | 47% | 1018 hPa | 0 mm | - | 368 W/m² | - |
| 1777301968 | 16.67° C | 48% | 1018.3 hPa | 0 mm | - | 264 W/m² | - |
| 1777300757 | 15° C | 55% | 1018.5 hPa | 0 mm | - | 294 W/m² | - |
| 1777300455 | 15° C | 56% | 1018.8 hPa | 0 mm | - | 239 W/m² | - |
| 1777300152 | 14.44° C | 56% | 1018.9 hPa | 0 mm | - | 172 W/m² | - |
| 1777299848 | 14.44° C | 56% | 1018.9 hPa | 0 mm | - | 153 W/m² | - |
| 1777299546 | 14.44° C | 59% | 1019.1 hPa | 0 mm | - | 318 W/m² | - |
| 1777299244 | 14.44° C | 58% | 1019.3 hPa | 0 mm | - | 159 W/m² | - |
| 1777298637 | 13.89° C | 61% | 1019.9 hPa | 0 mm | - | 272 W/m² | - |
| 1777298334 | 13.89° C | 60% | 1019.8 hPa | 0 mm | - | 305 W/m² | - |
| 1777298030 | 13.89° C | 61% | 1020.1 hPa | 0 mm | - | 341 W/m² | - |
| 1777295597 | 12.22° C | 67% | 1019.6 hPa | 0 mm | - | 227 W/m² | - |
| 1777295294 | 12.22° C | 68% | 1019.8 hPa | 0 mm | - | 210 W/m² | - |
* Rain latest hour (hover to see other rain measurements)
** Current wind speed in m/s (hover to see current wind gust speed)